Time;durP1;ratioP1;P1;durP2;ratioP2;P2;SDS_P1;SDS_P2;PMS_P1;PMS_P2;Temp;Humidity;BMP_temperature;BMP_pressure;BME280_temperature;BME280_humidity;BME280_pressure;Samples;Min_cycle;Max_cycle;Signal;HPM_P1;HPM_P2
2023/05/15 00:01:13;;;;;;;9.77;5.83;;;;;;;19.05;46.50;101049.63;5016383;28;20040;-36
2023/05/15 00:03:48;;;;;;;7.80;5.03;;;;;;;19.05;46.47;101049.63;5030267;28;20902;-36
2023/05/15 00:06:20;;;;;;;9.23;5.05;;;;;;;19.04;46.58;101034.63;5010088;28;20209;-36
2023/05/15 00:08:59;;;;;;;9.98;5.65;;;;;;;18.97;46.74;101039.66;5016873;28;20044;-36
2023/05/15 00:11:27;;;;;;;7.18;5.82;;;;;;;18.90;46.75;101027.81;5033278;28;22957;-36
2023/05/15 00:13:58;;;;;;;8.35;6.28;;;;;;;18.87;46.73;101036.91;4987616;28;20036;-36
2023/05/15 00:16:32;;;;;;;11.00;6.13;;;;;;;18.81;46.88;101032.16;5002172;28;20052;-36
2023/05/15 00:19:02;;;;;;;9.13;5.50;;;;;;;18.71;47.05;101029.44;5018282;28;20514;-36
2023/05/15 00:21:31;;;;;;;7.28;4.18;;;;;;;18.64;46.97;101024.78;5011013;28;20055;-36
2023/05/15 00:24:01;;;;;;;10.73;6.82;;;;;;;18.62;47.07;101029.41;5029494;28;20037;-36
2023/05/15 00:26:32;;;;;;;11.40;6.70;;;;;;;18.51;47.38;101025.88;5019065;28;20029;-36
2023/05/15 00:29:03;;;;;;;9.90;6.25;;;;;;;18.38;47.51;101018.09;5014442;28;20061;-36
2023/05/15 00:31:32;;;;;;;12.60;7.22;;;;;;;18.32;47.72;101025.78;5015643;28;20484;-36
2023/05/15 00:33:57;;;;;;;11.27;7.03;;;;;;;18.32;47.70;101020.44;4997234;28;20048;-36
2023/05/15 00:36:26;;;;;;;10.18;6.47;;;;;;;18.13;48.21;101014.03;5016918;28;20037;-36
2023/05/15 00:38:55;;;;;;;11.48;7.15;;;;;;;18.07;48.15;101015.41;4999000;28;20082;-36
2023/05/15 00:41:31;;;;;;;8.95;6.20;;;;;;;18.11;47.99;101018.63;5014925;28;20033;-36
2023/05/15 00:44:04;;;;;;;9.43;6.03;;;;;;;18.12;47.90;101018.53;4995943;28;20045;-36
2023/05/15 00:46:36;;;;;;;7.68;6.70;;;;;;;18.12;47.92;101012.34;5016710;28;20444;-36
2023/05/15 00:49:12;;;;;;;7.53;4.30;;;;;;;18.11;47.97;101007.97;4993068;28;20061;-36
2023/05/15 00:51:46;;;;;;;14.25;7.45;;;;;;;18.09;47.99;101004.59;5030701;28;20030;-36
2023/05/15 00:54:19;;;;;;;12.88;6.47;;;;;;;18.01;47.97;101007.09;5017407;28;20503;-36
2023/05/15 00:56:49;;;;;;;11.88;6.70;;;;;;;18.05;47.97;100995.22;5020532;28;20026;-36
2023/05/15 00:59:19;;;;;;;12.30;7.10;;;;;;;18.02;47.93;101000.78;4998117;28;20030;-36
2023/05/15 01:01:51;;;;;;;11.13;6.45;;;;;;;18.00;48.02;101002.75;5000504;28;20621;-36
2023/05/15 01:04:19;;;;;;;8.50;6.07;;;;;;;17.94;48.26;100994.25;5002931;28;20034;-36
2023/05/15 01:06:52;;;;;;;12.13;6.35;;;;;;;17.88;48.15;100997.47;5019535;28;20033;-36
2023/05/15 01:09:26;;;;;;;9.93;6.82;;;;;;;17.83;48.51;100986.34;5010922;28;20021;-36
2023/05/15 01:11:53;;;;;;;9.23;6.78;;;;;;;17.81;48.48;100983.84;5051574;22;20388;-36
2023/05/15 01:14:22;;;;;;;10.43;6.82;;;;;;;17.70;48.67;100983.88;5025028;28;20020;-36
2023/05/15 01:16:50;;;;;;;11.10;7.00;;;;;;;17.65;48.88;100983.44;5004469;28;20391;-36
2023/05/15 01:19:21;;;;;;;14.10;7.57;;;;;;;17.61;48.91;100977.53;5003255;28;20033;-36
2023/05/15 01:21:55;;;;;;;13.70;7.25;;;;;;;17.66;48.88;100983.28;5010004;28;20049;-35
2023/05/15 01:24:41;;;;;;;9.57;6.20;;;;;;;17.74;48.66;100979.16;5023843;28;20048;-35
2023/05/15 01:27:18;;;;;;;13.10;6.50;;;;;;;17.78;48.42;100984.09;5015561;28;20037;-36
2023/05/15 01:29:52;;;;;;;9.88;7.28;;;;;;;17.80;48.40;100981.28;5023520;28;20026;-36
2023/05/15 01:32:22;;;;;;;13.48;7.60;;;;;;;17.70;48.55;100977.72;5020068;28;20033;-36
2023/05/15 01:34:57;;;;;;;12.38;7.13;;;;;;;17.53;49.13;100969.34;4998261;28;20056;-36
2023/05/15 01:37:25;;;;;;;12.02;7.10;;;;;;;17.39;49.10;100967.84;5021808;28;20026;-36
2023/05/15 01:39:57;;;;;;;10.10;7.75;;;;;;;17.30;49.81;100972.13;4988545;28;20041;-36
2023/05/15 01:42:29;;;;;;;12.50;7.28;;;;;;;17.05;50.23;100960.81;5020163;28;20017;-36
2023/05/15 01:44:56;;;;;;;11.95;7.68;;;;;;;16.95;50.12;100957.22;5015159;28;20098;-36
2023/05/15 01:47:31;;;;;;;11.13;6.47;;;;;;;16.99;50.57;100961.34;5018935;28;20435;-35
2023/05/15 01:50:01;;;;;;;11.07;6.95;;;;;;;16.94;50.61;100966.16;5013496;28;20034;-36
2023/05/15 01:52:35;;;;;;;13.13;6.97;;;;;;;17.04;50.47;100958.31;5009356;28;20090;-36
2023/05/15 01:55:03;;;;;;;13.45;7.93;;;;;;;17.10;49.87;100959.59;5003357;28;20029;-36
2023/05/15 01:57:30;;;;;;;10.40;8.60;;;;;;;17.06;50.17;100957.19;5025271;28;20025;-35
2023/05/15 01:59:57;;;;;;;8.73;7.18;;;;;;;17.06;49.91;100962.50;5023658;28;20399;-36
2023/05/15 02:02:25;;;;;;;11.60;7.60;;;;;;;16.98;50.03;100969.41;5022668;28;20117;-36
2023/05/15 02:04:51;;;;;;;11.57;7.65;;;;;;;16.99;50.12;100965.78;4990816;28;20120;-35
2023/05/15 02:07:19;;;;;;;12.15;7.05;;;;;;;16.98;50.20;100964.97;5020671;28;20435;-36
2023/05/15 02:09:50;;;;;;;9.48;6.88;;;;;;;16.90;50.32;100962.03;5020431;28;20033;-36
2023/05/15 02:12:16;;;;;;;10.73;7.93;;;;;;;16.88;50.33;100956.00;5025323;28;20029;-35
2023/05/15 02:14:42;;;;;;;10.90;7.00;;;;;;;16.91;50.01;100961.94;5027406;28;20033;-35
2023/05/15 02:17:08;;;;;;;11.13;7.03;;;;;;;16.90;50.33;100952.28;5018978;28;20454;-36
2023/05/15 02:19:34;;;;;;;9.40;6.85;;;;;;;16.80;50.41;100940.69;5015247;28;20037;-36
2023/05/15 02:22:03;;;;;;;12.27;7.70;;;;;;;16.77;50.57;100947.09;5007235;28;20040;-37
2023/05/15 02:24:28;;;;;;;11.68;8.25;;;;;;;16.69;50.85;100946.88;4995243;28;20061;-36
2023/05/15 02:27:20;;;;;;;16.45;9.70;;;;;;;16.72;51.13;100948.44;4993030;28;20080;-36
2023/05/15 02:30:03;;;;;;;12.02;9.25;;;;;;;16.85;50.80;100945.66;5024524;28;20095;-36
2023/05/15 02:32:48;;;;;;;12.13;9.23;;;;;;;16.87;50.26;100941.88;5035334;28;20029;-36
2023/05/15 02:35:33;;;;;;;12.73;8.77;;;;;;;16.80;50.61;100935.34;5030398;28;20033;-36
2023/05/15 02:38:05;;;;;;;12.75;8.43;;;;;;;16.70;50.87;100934.44;5035842;28;20018;-36
2023/05/15 02:40:35;;;;;;;12.23;9.02;;;;;;;16.59;50.93;100932.63;5001763;28;20120;-35
2023/05/15 02:43:03;;;;;;;8.20;5.38;;;;;;;16.52;51.15;100926.13;4992844;28;20037;-35
2023/05/15 02:45:29;;;;;;;16.08;8.93;;;;;;;16.56;50.84;100925.75;5021988;28;20132;-35
2023/05/15 02:47:57;;;;;;;12.98;8.02;;;;;;;16.54;51.01;100918.91;5022969;28;20048;-36
2023/05/15 02:50:23;;;;;;;10.35;8.02;;;;;;;16.44;51.31;100918.78;4996445;28;20037;-36
2023/05/15 02:52:48;;;;;;;14.75;8.70;;;;;;;16.36;51.30;100905.25;4994602;28;20043;-35
2023/05/15 02:55:16;;;;;;;10.85;8.05;;;;;;;16.31;51.40;100905.63;5009510;28;20021;-36
2023/05/15 02:57:41;;;;;;;10.50;8.73;;;;;;;16.10;51.85;100901.06;5023029;28;20030;-35
2023/05/15 03:00:10;;;;;;;11.73;7.72;;;;;;;16.07;51.74;100897.78;5006405;28;20030;-36
2023/05/15 03:02:38;;;;;;;13.25;8.98;;;;;;;16.04;51.87;100896.22;4988406;28;20728;-36
2023/05/15 03:05:05;;;;;;;13.68;9.02;;;;;;;16.03;51.84;100897.19;5016437;28;20034;-35
2023/05/15 03:07:33;;;;;;;10.98;8.48;;;;;;;16.18;51.53;100892.50;5023540;28;20025;-35
2023/05/15 03:10:01;;;;;;;13.88;8.15;;;;;;;16.24;51.18;100892.00;5001939;28;20060;-36
2023/05/15 03:12:27;;;;;;;10.77;7.72;;;;;;;16.24;51.10;100892.00;4999218;28;20026;-36
2023/05/15 03:14:52;;;;;;;13.80;9.40;;;;;;;16.25;51.18;100887.56;4989579;28;20025;-35
2023/05/15 03:17:20;;;;;;;15.90;8.32;;;;;;;16.22;51.35;100885.97;4992915;28;20044;-35
2023/05/15 03:19:48;;;;;;;71.72;38.67;;;;;;;16.25;51.34;100882.25;5023398;28;20077;-35
2023/05/15 03:22:13;;;;;;;35.25;22.15;;;;;;;16.29;51.16;100886.31;5013678;28;20416;-36
2023/05/15 03:24:39;;;;;;;14.18;8.98;;;;;;;16.26;51.40;100894.56;5004620;28;20498;-36
2023/05/15 03:27:04;;;;;;;13.18;8.10;;;;;;;16.33;51.22;100887.78;5003365;28;20052;-37
2023/05/15 03:29:30;;;;;;;14.90;9.23;;;;;;;16.31;51.38;100884.38;5021284;28;20065;-35
2023/05/15 03:31:55;;;;;;;13.07;7.80;;;;;;;16.32;51.43;100880.75;5005071;28;20125;-36
2023/05/15 03:34:24;;;;;;;12.15;8.30;;;;;;;16.17;51.77;100879.34;4995545;28;20021;-36
2023/05/15 03:36:51;;;;;;;12.77;8.50;;;;;;;16.02;52.05;100874.28;5003385;28;20036;-35
2023/05/15 03:39:17;;;;;;;12.65;8.30;;;;;;;15.99;52.16;100871.84;5016050;28;20419;-35
2023/05/15 03:41:43;;;;;;;18.95;9.63;;;;;;;15.96;52.26;100867.66;5015352;28;20036;-35
2023/05/15 03:44:10;;;;;;;25.83;15.82;;;;;;;15.95;52.34;100860.66;4987766;28;20911;-35
2023/05/15 03:46:36;;;;;;;15.20;10.50;;;;;;;15.95;52.35;100865.13;5016899;28;20084;-36
2023/05/15 03:49:02;;;;;;;11.60;8.38;;;;;;;15.96;52.56;100866.78;4984123;28;20037;-36
2023/05/15 03:51:27;;;;;;;13.60;9.35;;;;;;;16.03;52.11;100860.03;5006678;28;20073;-37
2023/05/15 03:53:56;;;;;;;15.27;8.75;;;;;;;16.06;52.36;100867.75;5000842;28;20032;-35
2023/05/15 03:56:22;;;;;;;13.20;9.48;;;;;;;16.07;52.72;100868.59;5023531;28;20033;-36
2023/05/15 03:58:52;;;;;;;17.27;11.48;;;;;;;16.12;52.80;100867.25;5024277;28;20037;-36
2023/05/15 04:01:18;;;;;;;19.48;12.00;;;;;;;16.20;52.56;100865.81;5011511;28;20115;-36
2023/05/15 04:03:44;;;;;;;15.88;10.38;;;;;;;16.18;52.72;100865.09;5000087;28;20199;-36
2023/05/15 04:06:11;;;;;;;13.02;9.77;;;;;;;16.20;52.78;100858.69;5004121;28;20133;-36
2023/05/15 04:08:37;;;;;;;17.00;10.80;;;;;;;16.14;52.99;100859.19;5019863;28;21355;-37
2023/05/15 04:11:03;;;;;;;14.25;10.82;;;;;;;16.12;53.08;100854.00;5007254;28;20044;-37
2023/05/15 04:13:28;;;;;;;13.35;10.45;;;;;;;16.02;53.37;100854.88;5005223;28;20137;-37
2023/05/15 04:15:55;;;;;;;15.43;9.82;;;;;;;15.91;53.59;100848.56;4993203;28;21104;-36
2023/05/15 04:18:20;;;;;;;17.75;10.05;;;;;;;15.81;53.82;100851.06;5012975;28;20041;-36
2023/05/15 04:20:48;;;;;;;14.70;10.43;;;;;;;15.75;54.30;100843.59;5013278;28;20032;-37
2023/05/15 04:23:14;;;;;;;13.38;9.93;;;;;;;15.72;54.25;100849.16;5002181;28;20812;-37
2023/05/15 04:25:44;;;;;;;14.70;10.48;;;;;;;15.67;54.18;100852.16;4988853;28;20061;-37
2023/05/15 04:28:12;;;;;;;11.82;9.52;;;;;;;15.66;54.19;100846.97;5007970;28;20112;-36
2023/05/15 04:30:38;;;;;;;17.50;9.02;;;;;;;15.73;54.30;100850.84;5013321;28;20033;-38
2023/05/15 04:33:06;;;;;;;15.63;8.95;;;;;;;15.84;54.09;100842.88;4987258;28;20030;-37
2023/05/15 04:35:32;;;;;;;14.90;9.10;;;;;;;15.93;54.00;100845.81;4994955;28;20033;-36
2023/05/15 04:37:57;;;;;;;14.07;9.30;;;;;;;15.97;53.99;100853.41;5010901;28;20045;-37
2023/05/15 04:40:25;;;;;;;17.70;10.10;;;;;;;16.04;53.89;100853.75;4993304;28;20434;-36
2023/05/15 04:42:53;;;;;;;12.82;8.70;;;;;;;16.01;54.07;100843.38;5016649;28;20029;-37
2023/05/15 04:45:19;;;;;;;14.95;10.00;;;;;;;15.98;54.13;100844.47;5004148;28;20030;-37
2023/05/15 04:47:44;;;;;;;12.90;9.18;;;;;;;15.98;54.26;100843.63;5015129;28;20839;-37
2023/05/15 04:50:10;;;;;;;14.43;8.77;;;;;;;15.98;54.44;100835.66;4992734;28;20037;-37
2023/05/15 04:52:38;;;;;;;18.55;10.38;;;;;;;15.96;54.81;100845.56;4994898;28;20033;-35
2023/05/15 04:55:04;;;;;;;12.25;9.25;;;;;;;15.99;54.76;100840.88;5009426;28;20025;-38
2023/05/15 04:57:30;;;;;;;13.65;9.02;;;;;;;16.07;54.54;100842.06;4988800;28;20044;-36
2023/05/15 04:59:56;;;;;;;16.70;10.48;;;;;;;16.15;54.67;100840.47;4990807;28;20025;-36
2023/05/15 05:02:23;;;;;;;15.60;7.68;;;;;;;16.26;54.39;100841.44;5004319;28;20025;-37
2023/05/15 05:04:49;;;;;;;18.27;11.18;;;;;;;16.37;54.07;100843.22;5008936;28;20114;-35
2023/05/15 05:07:15;;;;;;;16.35;12.10;;;;;;;16.45;54.24;100840.81;5007682;28;20384;-36
2023/05/15 05:09:40;;;;;;;15.23;11.00;;;;;;;16.55;53.94;100847.03;5013270;28;20089;-36
2023/05/15 05:12:07;;;;;;;16.98;11.25;;;;;;;16.66;53.86;100856.78;5008845;28;20543;-36
2023/05/15 05:14:33;;;;;;;18.30;10.95;;;;;;;16.74;53.72;100857.00;5002229;28;20095;-36
2023/05/15 05:16:58;;;;;;;19.05;11.73;;;;;;;16.81;53.64;100861.81;5015408;28;20029;-35
2023/05/15 05:19:24;;;;;;;18.77;11.82;;;;;;;16.87;53.67;100862.16;4983606;28;20115;-35
2023/05/15 05:21:50;;;;;;;19.70;12.15;;;;;;;16.88;53.74;100858.53;4995638;28;20049;-35
2023/05/15 05:24:18;;;;;;;18.45;11.20;;;;;;;16.92;53.62;100859.97;5012467;28;20049;-35
2023/05/15 05:26:46;;;;;;;16.50;12.15;;;;;;;16.93;53.74;100860.78;5014030;28;20033;-36
2023/05/15 05:29:17;;;;;;;16.92;11.80;;;;;;;16.83;54.02;100855.41;5002444;28;20128;-36
2023/05/15 05:31:45;;;;;;;18.85;12.45;;;;;;;16.82;54.19;100852.88;5020337;28;20041;-35
2023/05/15 05:34:11;;;;;;;17.15;11.38;;;;;;;16.83;54.11;100854.56;5019002;28;20406;-36
2023/05/15 05:36:36;;;;;;;19.60;11.48;;;;;;;16.83;54.18;100852.75;4997781;28;20496;-35
2023/05/15 05:39:03;;;;;;;19.23;10.80;;;;;;;16.89;54.09;100854.03;4984690;28;20655;-35
2023/05/15 05:41:29;;;;;;;14.35;10.95;;;;;;;16.95;54.00;100856.22;5010690;28;20044;-35
2023/05/15 05:43:54;;;;;;;17.05;12.43;;;;;;;17.01;53.86;100869.03;4981932;28;20801;-36
2023/05/15 05:46:26;;;;;;;13.68;10.25;;;;;;;17.05;53.84;100859.81;5001385;28;20091;-36
2023/05/15 05:48:54;;;;;;;18.07;11.73;;;;;;;17.10;53.90;100855.94;5001583;28;20045;-35
2023/05/15 05:51:22;;;;;;;14.80;10.80;;;;;;;17.12;53.84;100848.66;4995839;28;20452;-36
2023/05/15 05:53:48;;;;;;;18.75;11.43;;;;;;;17.02;54.08;100844.09;5014259;28;20049;-36
2023/05/15 05:56:13;;;;;;;20.67;11.63;;;;;;;16.99;54.31;100844.38;4980848;28;20171;-35
2023/05/15 05:58:39;;;;;;;16.13;10.93;;;;;;;16.99;54.34;100843.53;4998869;28;20040;-35
2023/05/15 06:01:07;;;;;;;17.10;11.43;;;;;;;16.93;54.71;100834.22;4994766;28;20033;-36
2023/05/15 06:03:37;;;;;;;14.20;10.60;;;;;;;16.94;54.80;100835.91;5008174;28;20033;-36
2023/05/15 06:06:02;;;;;;;16.95;12.25;;;;;;;16.92;54.92;100833.38;5002362;28;20036;-36
2023/05/15 06:08:28;;;;;;;15.93;11.43;;;;;;;16.92;54.94;100833.38;5014702;28;20026;-36
2023/05/15 06:10:54;;;;;;;18.77;12.57;;;;;;;16.93;55.37;100828.91;5008526;28;20021;-37
2023/05/15 06:13:20;;;;;;;18.67;12.05;;;;;;;16.97;55.02;100825.06;4994212;28;20040;-35
2023/05/15 06:15:46;;;;;;;17.15;11.85;;;;;;;16.98;55.29;100816.13;5006296;28;20043;-36
2023/05/15 06:18:11;;;;;;;17.05;11.30;;;;;;;16.97;55.18;100814.44;4992023;28;20863;-36
2023/05/15 06:20:42;;;;;;;20.80;11.93;;;;;;;17.00;55.20;100808.00;4990925;28;20155;-36
2023/05/15 06:23:08;;;;;;;37.92;16.00;;;;;;;17.03;55.25;100805.91;5007947;28;20112;-36
2023/05/15 06:25:34;;;;;;;18.08;11.45;;;;;;;17.09;55.03;100807.25;5003249;28;20510;-36
2023/05/15 06:27:59;;;;;;;17.38;11.65;;;;;;;17.17;55.05;100803.91;5001883;28;20561;-36
2023/05/15 06:30:25;;;;;;;19.52;12.20;;;;;;;17.23;55.19;100792.75;5005638;28;20494;-36
2023/05/15 06:32:55;;;;;;;23.35;12.35;;;;;;;17.16;55.16;100786.28;5011690;28;20053;-36
2023/05/15 06:35:23;;;;;;;16.50;11.27;;;;;;;17.16;55.48;100794.28;5002661;28;20086;-35
2023/05/15 06:37:50;;;;;;;19.65;12.60;;;;;;;17.11;55.46;100783.19;4992514;28;20044;-36
2023/05/15 06:40:16;;;;;;;36.35;14.80;;;;;;;17.11;55.50;100777.84;5000450;28;20127;-36
2023/05/15 06:42:42;;;;;;;20.58;12.93;;;;;;;17.16;55.55;100770.34;5000333;28;20456;-36
2023/05/15 06:45:08;;;;;;;27.63;13.02;;;;;;;17.15;55.63;100766.00;5016536;28;20602;-35
2023/05/15 06:47:33;;;;;;;21.80;12.80;;;;;;;17.17;55.54;100761.38;5020611;28;20041;-36
2023/05/15 06:49:59;;;;;;;22.42;11.52;;;;;;;17.16;55.85;100765.84;4997981;28;20415;-36
2023/05/15 06:52:24;;;;;;;23.77;12.48;;;;;;;17.16;55.95;100749.91;5003198;28;20047;-35
2023/05/15 06:54:50;;;;;;;26.15;11.93;;;;;;;17.17;56.01;100756.91;4999499;28;20030;-36
2023/05/15 06:57:18;;;;;;;31.70;16.58;;;;;;;17.20;56.31;100750.47;5032718;28;20176;-37
2023/05/15 06:59:44;;;;;;;24.73;15.02;;;;;;;17.25;56.08;100753.59;5019328;28;20076;-36
2023/05/15 07:02:10;;;;;;;28.52;17.48;;;;;;;17.30;55.91;100751.38;5001108;28;20055;-36
2023/05/15 07:04:35;;;;;;;27.45;17.58;;;;;;;17.31;56.01;100739.78;5005771;28;20384;-36
2023/05/15 07:07:01;;;;;;;28.45;17.85;;;;;;;17.33;56.08;100735.16;5021801;28;20064;-36
2023/05/15 07:09:26;;;;;;;36.90;17.95;;;;;;;17.28;56.22;100737.38;5005130;28;20052;-36
2023/05/15 07:11:52;;;;;;;27.25;17.10;;;;;;;17.23;56.29;100717.47;5020911;28;20052;-36
2023/05/15 07:14:18;;;;;;;37.30;17.33;;;;;;;17.13;56.86;100706.78;5016844;28;20483;-36
2023/05/15 07:16:44;;;;;;;22.77;15.95;;;;;;;17.05;57.13;100707.44;5002400;28;20029;-36
2023/05/15 07:19:10;;;;;;;24.00;14.85;;;;;;;17.08;57.01;100695.72;5002134;28;20069;-36
2023/05/15 07:21:39;;;;;;;23.10;15.95;;;;;;;17.17;56.75;100697.56;4999848;28;20068;-35
2023/05/15 07:24:05;;;;;;;28.42;15.60;;;;;;;17.24;56.72;100682.78;5020363;28;20040;-35
2023/05/15 07:26:31;;;;;;;21.83;15.15;;;;;;;17.30;56.58;100682.25;4983560;28;20029;-36
2023/05/15 07:28:57;;;;;;;19.35;13.18;;;;;;;17.34;56.62;100675.66;5020560;28;20029;-36
2023/05/15 07:31:22;;;;;;;18.30;11.77;;;;;;;17.40;56.55;100673.44;5003863;28;20033;-36
2023/05/15 07:33:50;;;;;;;19.23;11.55;;;;;;;17.47;56.57;100666.63;5020652;28;20116;-36
2023/05/15 07:36:19;;;;;;;16.30;11.90;;;;;;;17.52;56.55;100667.03;5003350;28;20040;-36
2023/05/15 07:38:44;;;;;;;13.23;9.43;;;;;;;17.57;56.17;100672.81;4999505;28;20038;-36
2023/05/15 07:41:10;;;;;;;14.88;9.60;;;;;;;17.52;56.01;100678.53;4986191;28;20044;-36
2023/05/15 07:43:38;;;;;;;12.38;8.82;;;;;;;17.52;55.95;100672.38;5000876;28;20519;-36
2023/05/15 07:46:03;;;;;;;11.27;5.55;;;;;;;17.55;55.89;100666.78;5002942;28;20044;-36
2023/05/15 07:48:29;;;;;;;18.88;11.32;;;;;;;17.62;55.71;100665.22;5001011;28;20388;-36
2023/05/15 07:50:55;;;;;;;14.02;9.00;;;;;;;17.73;55.42;100656.31;5001293;28;20029;-36
2023/05/15 07:53:21;;;;;;;15.05;9.57;;;;;;;17.84;55.21;100658.00;5012717;28;20021;-36
2023/05/15 07:55:47;;;;;;;13.25;8.02;;;;;;;17.98;54.86;100654.97;5021507;28;20064;-36
2023/05/15 07:58:13;;;;;;;14.32;7.90;;;;;;;18.11;54.73;100664.50;5000210;28;20538;-36
2023/05/15 08:00:39;;;;;;;14.75;7.50;;;;;;;18.19;54.38;100661.13;5002683;28;20029;-36
2023/05/15 08:03:05;;;;;;;15.85;8.13;;;;;;;18.25;54.33;100660.59;5003109;28;20048;-36
2023/05/15 08:05:33;;;;;;;12.77;8.15;;;;;;;18.34;54.24;100659.72;5016431;28;20079;-36
2023/05/15 08:07:59;;;;;;;20.25;8.98;;;;;;;18.46;54.01;100659.56;5023222;28;20025;-36
2023/05/15 08:10:25;;;;;;;12.65;8.23;;;;;;;18.51;53.93;100660.00;5021357;28;20387;-36
2023/05/15 08:12:50;;;;;;;15.63;7.70;;;;;;;18.57;53.73;100660.25;5000163;28;20029;-35
2023/05/15 08:15:21;;;;;;;14.00;9.13;;;;;;;18.59;53.75;100662.78;4999276;28;20041;-35
2023/05/15 08:17:46;;;;;;;15.73;8.48;;;;;;;18.63;53.71;100655.34;5010766;28;20044;-37
2023/05/15 08:20:15;;;;;;;15.30;8.40;;;;;;;18.69;53.58;100657.41;4999456;28;20034;-36
2023/05/15 08:22:41;;;;;;;13.48;9.15;;;;;;;18.76;53.64;100652.34;5020513;28;20029;-36
2023/05/15 08:25:11;;;;;;;13.68;8.88;;;;;;;18.82;53.02;100652.66;5001085;28;20476;-36
2023/05/15 08:27:37;;;;;;;15.48;7.80;;;;;;;18.90;53.07;100654.59;5022745;28;20049;-36
2023/05/15 08:30:03;;;;;;;11.18;7.38;;;;;;;18.98;52.84;100651.22;5001513;28;20166;-36
2023/05/15 08:32:28;;;;;;;26.17;16.27;;;;;;;19.04;52.35;100651.47;5013142;28;20049;-36
2023/05/15 08:34:54;;;;;;;44.03;24.20;;;;;;;19.10;52.16;100655.38;5021798;28;20691;-36
2023/05/15 08:37:20;;;;;;;15.20;9.15;;;;;;;19.16;52.08;100641.44;5004660;28;20034;-36
2023/05/15 08:39:45;;;;;;;15.82;8.20;;;;;;;19.25;52.02;100644.22;5006002;28;20048;-36
2023/05/15 08:42:19;;;;;;;11.77;8.38;;;;;;;19.30;51.99;100644.59;5035048;28;20083;-36
2023/05/15 08:44:45;;;;;;;16.02;8.30;;;;;;;19.34;51.99;100644.19;5018272;28;20034;-36
2023/05/15 08:47:12;;;;;;;15.82;8.48;;;;;;;19.40;51.77;100644.56;5006008;28;20116;-36
2023/05/15 08:49:53;;;;;;;12.20;8.93;;;;;;;19.41;51.79;100641.75;5016494;28;20029;-36
2023/05/15 08:52:22;;;;;;;12.88;7.90;;;;;;;19.41;51.59;100636.41;5020499;28;20147;-36
2023/05/15 08:54:48;;;;;;;14.93;8.68;;;;;;;19.45;51.59;100632.44;5018822;28;20022;-36
2023/05/15 08:57:14;;;;;;;20.00;11.15;;;;;;;19.52;51.58;100637.19;5014726;28;20041;-36
2023/05/15 08:59:40;;;;;;;19.83;10.82;;;;;;;19.57;51.31;100641.09;5015941;28;20029;-36
2023/05/15 09:02:05;;;;;;;16.33;9.77;;;;;;;19.63;50.67;100650.31;5003638;28;20048;-36
2023/05/15 09:04:31;;;;;;;10.30;6.80;;;;;;;19.63;50.48;100645.84;4989160;28;20120;-36
2023/05/15 09:07:02;;;;;;;12.63;6.90;;;;;;;19.70;50.59;100637.22;5005105;28;20033;-36
2023/05/15 09:09:32;;;;;;;14.37;6.07;;;;;;;19.75;50.49;100637.59;4999459;28;20025;-36
2023/05/15 09:12:02;;;;;;;8.15;5.97;;;;;;;19.74;50.51;100642.09;5021294;28;20037;-36
2023/05/15 09:14:28;;;;;;;6.88;5.18;;;;;;;19.69;50.42;100633.72;5021771;28;20025;-36
2023/05/15 09:16:54;;;;;;;10.25;6.72;;;;;;;19.71;50.45;100634.41;5003505;28;20159;-37
2023/05/15 09:19:22;;;;;;;12.20;7.00;;;;;;;19.76;50.45;100631.28;5022581;28;20087;-36
2023/05/15 09:21:48;;;;;;;9.57;7.25;;;;;;;19.77;50.59;100636.44;5019108;28;20125;-36
2023/05/15 09:24:22;;;;;;;10.25;7.43;;;;;;;19.83;50.86;100634.19;5002079;28;20210;-36
2023/05/15 09:27:05;;;;;;;10.95;6.65;;;;;;;19.87;51.12;100636.41;5021278;28;20026;-37
2023/05/15 09:29:32;;;;;;;11.80;7.00;;;;;;;19.89;50.79;100636.28;5019836;28;20442;-37
2023/05/15 09:32:12;;;;;;;9.60;6.20;;;;;;;19.90;51.17;100632.59;5024521;28;20053;-38
2023/05/15 09:34:43;;;;;;;5.85;3.45;;;;;;;19.92;50.57;100633.28;5021438;28;20095;-37
2023/05/15 09:37:11;;;;;;;9.83;5.90;;;;;;;19.91;50.43;100629.78;5024654;28;20056;-36
2023/05/15 09:39:42;;;;;;;10.25;5.38;;;;;;;19.92;49.88;100622.59;5004154;28;20033;-35
2023/05/15 09:42:10;;;;;;;7.78;5.70;;;;;;;19.95;49.94;100627.66;5024021;28;20112;-36
2023/05/15 09:44:40;;;;;;;11.55;6.32;;;;;;;19.95;49.77;100623.16;5023419;28;20484;-36
2023/05/15 09:47:07;;;;;;;7.88;4.10;;;;;;;19.89;49.89;100628.28;5025849;28;20048;-35
2023/05/15 09:49:32;;;;;;;9.50;6.55;;;;;;;19.88;49.94;100621.25;5020557;28;20875;-37
2023/05/15 09:51:59;;;;;;;11.02;5.88;;;;;;;19.90;49.86;100621.91;5004357;28;20570;-37
2023/05/15 09:54:26;;;;;;;8.93;6.40;;;;;;;19.94;49.69;100620.63;5017419;28;20034;-35
2023/05/15 09:56:52;;;;;;;8.63;5.82;;;;;;;19.94;49.51;100612.63;5026330;28;20044;-35
2023/05/15 09:59:24;;;;;;;8.15;5.68;;;;;;;19.99;49.52;100615.66;5020686;28;20025;-34
2023/05/15 10:01:51;;;;;;;7.75;5.65;;;;;;;20.01;49.49;100616.38;5021359;28;20044;-35
2023/05/15 10:04:17;;;;;;;8.63;6.45;;;;;;;20.04;49.20;100604.53;5007261;28;20531;-37
2023/05/15 10:06:47;;;;;;;9.82;5.85;;;;;;;20.13;49.29;100608.09;5009442;28;20088;-37
2023/05/15 10:09:14;;;;;;;13.18;7.30;;;;;;;20.14;49.06;100607.09;5003855;28;20028;-37
2023/05/15 10:11:49;;;;;;;8.55;6.55;;;;;;;20.17;48.72;100609.47;5005578;28;20028;-37
2023/05/15 10:14:16;;;;;;;9.27;6.40;;;;;;;20.17;48.93;100610.31;5020042;28;20036;-34
2023/05/15 10:16:46;;;;;;;10.52;6.93;;;;;;;20.23;48.85;100598.16;4997652;28;20041;-37
2023/05/15 10:19:12;;;;;;;7.80;6.10;;;;;;;20.28;48.81;100595.00;5018395;28;20030;-35
2023/05/15 10:21:40;;;;;;;10.38;6.20;;;;;;;20.31;48.95;100598.22;5001559;28;20091;-36
2023/05/15 10:24:06;;;;;;;13.13;6.88;;;;;;;20.36;48.69;100593.25;5021892;28;20033;-35
2023/05/15 10:26:35;;;;;;;8.60;6.32;;;;;;;20.39;48.53;100598.28;5001480;28;20037;-36
2023/05/15 10:29:11;;;;;;;12.70;6.60;;;;;;;20.41;48.66;100582.09;5007533;28;20033;-35
2023/05/15 10:31:38;;;;;;;9.85;6.10;;;;;;;20.50;48.70;100580.28;5020030;28;20522;-35
2023/05/15 10:34:11;;;;;;;13.57;9.02;;;;;;;20.56;48.78;100579.69;5022374;28;20037;-36
2023/05/15 10:36:37;;;;;;;16.05;8.75;;;;;;;20.61;48.31;100569.34;5004887;28;20048;-36
2023/05/15 10:39:07;;;;;;;17.58;9.05;;;;;;;20.68;48.14;100570.38;5019070;28;20033;-35
2023/05/15 10:41:35;;;;;;;13.13;6.53;;;;;;;20.74;48.40;100565.41;5013593;28;20409;-36
2023/05/15 10:44:04;;;;;;;10.18;7.20;;;;;;;20.79;48.26;100552.44;5023140;28;20025;-36
2023/05/15 10:46:32;;;;;;;8.23;6.00;;;;;;;20.84;48.31;100558.13;5022181;28;20431;-36
2023/05/15 10:49:00;;;;;;;11.98;7.35;;;;;;;20.89;48.10;100550.47;5014578;28;20038;-36
2023/05/15 10:51:27;;;;;;;10.60;6.78;;;;;;;20.92;48.16;100555.50;5026568;28;20534;-36
2023/05/15 10:53:55;;;;;;;8.63;4.88;;;;;;;20.96;47.86;100546.13;5013553;28;20498;-36
2023/05/15 10:56:35;;;;;;;12.45;5.03;;;;;;;21.01;46.92;100541.13;5020061;28;20037;-37
2023/05/15 10:59:10;;;;;;;8.43;5.93;;;;;;;21.02;46.75;100537.47;5019669;28;20391;-37
2023/05/15 11:01:40;;;;;;;7.70;4.30;;;;;;;21.04;46.76;100534.63;5019958;28;20099;-36
2023/05/15 11:04:16;;;;;;;11.32;5.38;;;;;;;21.05;46.76;100527.44;5017414;28;20554;-36
2023/05/15 11:06:44;;;;;;;8.30;5.43;;;;;;;21.02;47.29;100537.47;5018495;28;20042;-36
2023/05/15 11:09:35;;;;;;;9.63;5.60;;;;;;;20.99;48.23;100556.50;5006033;28;20048;-37
2023/05/15 11:12:03;;;;;;;9.70;4.95;;;;;;;20.92;48.43;100568.88;5019869;28;20025;-36
2023/05/15 11:14:32;;;;;;;10.73;3.33;;;;;;;20.79;48.02;100576.50;5000797;28;20495;-37
2023/05/15 11:17:02;;;;;;;6.72;2.92;;;;;;;20.55;48.73;100580.66;5018538;28;20737;-37
2023/05/15 11:19:33;;;;;;;13.38;3.78;;;;;;;20.34;49.62;100573.88;5008926;28;20658;-36
2023/05/15 11:22:25;;;;;;;14.30;7.37;;;;;;;20.14;50.45;100572.38;5017388;28;20729;-36